Time;durP1;ratioP1;P1;durP2;ratioP2;P2;SDS_P1;SDS_P2;PMS_P1;PMS_P2;Temp;Humidity;BMP_temperature;BMP_pressure;BME280_temperature;BME280_humidity;BME280_pressure;Samples;Min_cycle;Max_cycle;Signal;HPM_P1;HPM_P2
2023/02/06 00:01:30;;;;;;;31.70;5.30;;;4.00;99.90;;;;;;4148777;28;20288;-96
2023/02/06 00:04:11;;;;;;;33.30;4.33;;;3.90;99.90;;;;;;4149864;28;20169;-94
2023/02/06 00:06:28;;;;;;;;;;;;;;;;;;;;;
2023/02/06 00:08:49;;;;;;;;;;;;;;;;;;;;;
2023/02/06 00:11:46;;;;;;;;;;;;;;;;;;;;;
2023/02/06 00:14:14;;;;;;;;;;;;;;;;;;;;;
2023/02/06 00:16:37;;;;;;;37.53;4.73;;;3.90;99.90;;;;;;4165180;28;20176;-93
2023/02/06 00:18:55;;;;;;;43.50;4.40;;;3.90;99.90;;;;;;4148336;28;20592;-94
2023/02/06 00:21:26;;;;;;;43.83;5.13;;;4.00;99.90;;;;;;4164918;28;20198;-94
2023/02/06 00:24:27;;;;;;;;;;;;;;;;;;;;;
2023/02/06 00:27:03;;;;;;;35.10;5.17;;;3.90;99.90;;;;;;4165027;28;20180;-94
2023/02/06 00:29:41;;;;;;;;;;;;;;;;;;;;;
2023/02/06 00:31:58;;;;;;;34.93;5.90;;;3.90;99.90;;;;;;4165009;28;20211;-95
2023/02/06 00:34:24;;;;;;;40.97;5.57;;;3.90;99.90;;;;;;4148292;28;20186;-95
2023/02/06 00:36:47;;;;;;;36.20;5.47;;;3.90;99.90;;;;;;4165000;28;20187;-94
2023/02/06 00:38:53;;;;;;;53.67;6.77;;;3.90;99.90;;;;;;4148891;28;20534;-94
2023/02/06 00:41:13;;;;;;;36.47;5.93;;;3.80;99.90;;;;;;4148193;28;20173;-95
2023/02/06 00:43:42;;;;;;;34.67;5.17;;;3.70;99.90;;;;;;4148386;28;20231;-94
2023/02/06 00:45:42;;;;;;;51.43;6.30;;;3.60;99.90;;;;;;4167176;28;20180;-96
2023/02/06 00:48:25;;;;;;;;;;;;;;;;;;;;;
2023/02/06 00:50:41;;;;;;;;;;;;;;;;;;;;;
2023/02/06 00:53:15;;;;;;;42.87;5.87;;;3.60;99.90;;;;;;4166493;28;20239;-94
2023/02/06 00:55:32;;;;;;;;;;;;;;;;;;;;;
2023/02/06 01:00:29;;;;;;;50.73;4.93;;;3.50;99.90;;;;;;4161994;28;20274;-95
2023/02/06 01:02:50;;;;;;;35.37;5.73;;;3.40;99.90;;;;;;4167751;28;21100;-93
2023/02/06 01:05:18;;;;;;;59.07;6.83;;;3.30;99.90;;;;;;4150935;28;20181;-94
2023/02/06 01:07:47;;;;;;;;;;;;;;;;;;;;;
2023/02/06 01:10:09;;;;;;;50.63;6.23;;;3.60;99.90;;;;;;4169010;28;20180;-94
2023/02/06 01:12:18;;;;;;;43.10;6.80;;;3.60;99.90;;;;;;4151982;28;20232;-94
2023/02/06 01:14:50;;;;;;;38.80;6.83;;;3.60;99.90;;;;;;4151847;28;20180;-95
2023/02/06 01:17:12;;;;;;;35.03;6.47;;;3.60;99.90;;;;;;4159917;28;20545;-95
2023/02/06 01:19:23;;;;;;;33.63;5.87;;;3.50;99.90;;;;;;4151509;28;20196;-95
2023/02/06 01:22:05;;;;;;;42.40;6.40;;;3.40;99.90;;;;;;4167995;28;20230;-94
2023/02/06 01:26:50;;;;;;;49.67;6.93;;;3.50;99.90;;;;;;4167293;28;20187;-95
2023/02/06 01:29:12;;;;;;;37.67;5.47;;;3.50;99.90;;;;;;4166990;28;20195;-94
2023/02/06 01:31:24;;;;;;;46.30;6.70;;;3.70;99.90;;;;;;4150723;28;20705;-94
2023/02/06 01:34:31;;;;;;;34.93;6.63;;;3.70;99.90;;;;;;4152734;28;20314;-95
2023/02/06 01:37:02;;;;;;;;;;;;;;;;;;;;;
2023/02/06 01:39:33;;;;;;;33.47;5.33;;;3.80;99.90;;;;;;4164330;28;20262;-94
2023/02/06 01:41:36;;;;;;;47.40;6.50;;;3.80;99.90;;;;;;4150783;28;20203;-95
2023/02/06 01:44:18;;;;;;;40.30;5.63;;;3.80;99.90;;;;;;4166613;28;20179;-95
2023/02/06 01:46:54;;;;;;;43.27;5.50;;;3.80;99.90;;;;;;4151699;28;20200;-95
2023/02/06 01:49:24;;;;;;;45.47;5.13;;;3.60;99.90;;;;;;4150811;28;20208;-96
2023/02/06 01:51:31;;;;;;;58.87;5.73;;;3.50;99.90;;;;;;4167096;28;20172;-95
2023/02/06 01:54:08;;;;;;;38.60;5.70;;;3.70;99.90;;;;;;4167070;28;20183;-93
2023/02/06 01:56:34;;;;;;;;;;;;;;;;;;;;;
2023/02/06 01:59:18;;;;;;;;;;;;;;;;;;;;;
2023/02/06 02:01:42;;;;;;;;;;;;;;;;;;;;;
2023/02/06 02:04:37;;;;;;;;;;;;;;;;;;;;;
2023/02/06 02:08:00;;;;;;;;;;;;;;;;;;;;;
2023/02/06 02:13:37;;;;;;;;;;;;;;;;;;;;;
2023/02/06 02:16:20;;;;;;;48.97;6.17;;;3.90;99.90;;;;;;4167507;28;20171;-94
2023/02/06 02:18:59;;;;;;;55.43;5.53;;;3.80;99.90;;;;;;4149439;28;20213;-95
2023/02/06 02:24:29;;;;;;;;;;;;;;;;;;;;;
2023/02/06 02:30:02;;;;;;;42.77;6.20;;;3.90;99.90;;;;;;4167261;28;20214;-94
2023/02/06 02:32:40;;;;;;;50.33;6.87;;;4.00;99.90;;;;;;4149345;28;20310;-94
2023/02/06 02:35:32;;;;;;;;;;;;;;;;;;;;;
2023/02/06 02:41:35;;;;;;;45.20;5.53;;;4.10;99.90;;;;;;4159067;28;20184;-94
2023/02/06 02:44:35;;;;;;;;;;;;;;;;;;;;;
2023/02/06 02:47:58;;;;;;;;;;;;;;;;;;;;;
2023/02/06 02:50:49;;;;;;;45.37;6.37;;;4.20;99.90;;;;;;4163087;28;20609;-94
2023/02/06 02:53:48;;;;;;;;;;;;;;;;;;;;;
2023/02/06 03:00:25;;;;;;;40.10;5.87;;;4.30;99.90;;;;;;4167617;28;20721;-96
2023/02/06 03:03:23;;;;;;;;;;;;;;;;;;;;;
2023/02/06 03:06:27;;;;;;;42.97;6.80;;;4.40;99.90;;;;;;4161093;28;20180;-94
2023/02/06 03:09:28;;;;;;;;;;;;;;;;;;;;;
2023/02/06 03:18:33;;;;;;;;;;;;;;;;;;;;;
2023/02/06 03:27:33;;;;;;;45.43;5.80;;;4.10;99.90;;;;;;4162610;28;20198;-94
2023/02/06 03:30:31;;;;;;;48.00;6.07;;;4.00;99.90;;;;;;4141758;28;20180;-96
2023/02/06 03:33:47;;;;;;;37.80;5.73;;;4.10;99.90;;;;;;4164381;28;20285;-95
2023/02/06 03:36:35;;;;;;;;;;;;;;;;;;;;;
2023/02/06 03:42:55;;;;;;;36.60;6.40;;;4.10;99.90;;;;;;4113735;28;20605;-94
2023/02/06 03:45:59;;;;;;;;;;;;;;;;;;;;;
2023/02/06 03:58:54;;;;;;;45.27;5.70;;;3.90;99.90;;;;;;4130110;28;20203;-94
2023/02/06 04:01:33;;;;;;;51.20;5.77;;;3.90;99.90;;;;;;4081795;28;20715;-94
2023/02/06 04:04:53;;;;;;;41.47;4.93;;;3.80;99.90;;;;;;4039118;29;20214;-95
2023/02/06 04:16:33;;;;;;;52.17;6.23;;;3.80;99.90;;;;;;4146662;28;20208;-94
2023/02/06 04:28:06;;;;;;;52.20;6.67;;;3.40;99.90;;;;;;4162487;28;20223;-94
2023/02/06 04:30:56;;;;;;;;;;;;;;;;;;;;;
2023/02/06 04:33:53;;;;;;;59.43;7.10;;;3.40;99.90;;;;;;4168035;28;20219;-94
2023/02/06 04:37:06;;;;;;;73.87;6.70;;;3.50;99.90;;;;;;4169039;28;20176;-95
2023/02/06 04:40:06;;;;;;;;;;;;;;;;;;;;;
2023/02/06 04:42:27;;;;;;;35.90;5.73;;;3.60;99.90;;;;;;4160979;28;20187;-94
2023/02/06 04:45:00;;;;;;;39.40;6.10;;;3.50;99.90;;;;;;4167622;28;20272;-96
2023/02/06 04:47:48;;;;;;;49.93;6.40;;;3.50;99.90;;;;;;4166979;28;20238;-95
2023/02/06 04:49:52;;;;;;;43.17;6.27;;;3.30;99.90;;;;;;4168325;28;20199;-95
2023/02/06 04:52:23;;;;;;;68.00;6.63;;;3.30;99.90;;;;;;4166522;28;20557;-94
2023/02/06 04:54:52;;;;;;;45.87;5.37;;;3.30;99.90;;;;;;4151483;28;20196;-96
2023/02/06 04:57:22;;;;;;;44.30;6.50;;;3.40;99.90;;;;;;4153085;28;20179;-96
2023/02/06 05:00:01;;;;;;;;;;;;;;;;;;;;;
2023/02/06 05:02:12;;;;;;;51.93;7.00;;;3.40;99.90;;;;;;4167522;28;20176;-94
2023/02/06 05:04:30;;;;;;;47.00;6.93;;;3.20;99.90;;;;;;4167321;28;20596;-94
2023/02/06 05:07:04;;;;;;;;;;;;;;;;;;;;;
2023/02/06 05:09:39;;;;;;;39.30;6.57;;;3.10;99.90;;;;;;4167528;28;20235;-93
2023/02/06 05:11:53;;;;;;;46.10;6.33;;;3.20;99.90;;;;;;4151089;28;20177;-94
2023/02/06 05:13:59;;;;;;;39.30;6.33;;;3.10;99.90;;;;;;4151807;28;20260;-94
2023/02/06 05:16:14;;;;;;;39.97;6.33;;;3.30;99.90;;;;;;4153261;28;20181;-93
2023/02/06 05:18:27;;;;;;;42.43;7.67;;;3.90;99.90;;;;;;4151357;28;20201;-96
2023/02/06 05:20:28;;;;;;;64.33;9.70;;;4.60;99.90;;;;;;4150635;28;20164;-94
2023/02/06 05:22:29;;;;;;;68.57;9.17;;;5.00;99.90;;;;;;4167453;28;20536;-94
2023/02/06 05:24:37;;;;;;;42.80;7.63;;;5.00;99.90;;;;;;4151936;28;20184;-93
2023/02/06 05:26:38;;;;;;;44.27;8.30;;;4.70;99.90;;;;;;4167214;28;20208;-94
2023/02/06 05:28:57;;;;;;;;;;;;;;;;;;;;;
2023/02/06 05:31:06;;;;;;;61.00;7.43;;;3.70;99.90;;;;;;4166653;28;20204;-94
2023/02/06 05:33:37;;;;;;;39.87;6.93;;;3.40;99.90;;;;;;4166873;28;20206;-94
2023/02/06 05:36:30;;;;;;;52.80;6.47;;;3.30;99.90;;;;;;4166769;28;20521;-94
2023/02/06 05:38:43;;;;;;;62.17;7.70;;;3.20;99.90;;;;;;4166659;28;20196;-95
2023/02/06 05:41:08;;;;;;;47.67;7.17;;;3.30;99.90;;;;;;4151255;28;20247;-94
2023/02/06 05:44:01;;;;;;;;;;;;;;;;;;;;;
2023/02/06 05:46:27;;;;;;;38.60;5.83;;;3.30;99.90;;;;;;4161329;28;20653;-93
2023/02/06 05:48:43;;;;;;;;;;;;;;;;;;;;;
2023/02/06 05:51:15;;;;;;;50.50;6.43;;;2.70;99.90;;;;;;4167670;28;20175;-94
2023/02/06 05:53:31;;;;;;;43.60;6.30;;;2.70;99.90;;;;;;4150718;28;20666;-93
2023/02/06 05:56:05;;;;;;;;;;;;;;;;;;;;;
2023/02/06 05:58:15;;;;;;;39.80;5.03;;;2.60;99.90;;;;;;4166492;28;20200;-93
2023/02/06 06:00:40;;;;;;;36.90;5.53;;;2.60;99.90;;;;;;4150019;28;20180;-95
2023/02/06 06:02:57;;;;;;;32.90;5.93;;;2.50;99.90;;;;;;4167285;28;20182;-94
2023/02/06 06:05:15;;;;;;;48.07;6.20;;;2.70;99.90;;;;;;4151154;28;20636;-95
2023/02/06 06:07:45;;;;;;;;;;;;;;;;;;;;;
2023/02/06 06:10:05;;;;;;;30.77;5.40;;;2.70;99.90;;;;;;4167186;28;20164;-95
2023/02/06 06:12:10;;;;;;;39.43;5.13;;;2.60;99.90;;;;;;4150287;28;20628;-94
2023/02/06 06:14:28;;;;;;;48.20;5.87;;;2.50;99.90;;;;;;4150840;28;20185;-95
2023/02/06 06:16:34;;;;;;;71.73;6.87;;;2.50;99.90;;;;;;4166067;28;20325;-94
2023/02/06 06:18:45;;;;;;;51.60;6.43;;;2.50;99.90;;;;;;4151098;28;20707;-94
2023/02/06 06:20:49;;;;;;;71.43;7.70;;;2.90;99.90;;;;;;4150127;28;20276;-92
2023/02/06 06:22:50;;;;;;;45.07;8.73;;;3.50;99.90;;;;;;4149901;28;20212;-93
2023/02/06 06:24:51;;;;;;;68.47;11.77;;;4.20;99.90;;;;;;4166007;28;20210;-95
2023/02/06 06:26:58;;;;;;;93.17;15.93;;;4.30;99.90;;;;;;4165489;28;20176;-92
2023/02/06 06:29:02;;;;;;;110.60;18.00;;;4.40;99.90;;;;;;4149420;28;20221;-94
2023/02/06 06:31:06;;;;;;;76.87;14.90;;;4.40;99.90;;;;;;4149122;28;20183;-95
2023/02/06 06:33:07;;;;;;;71.23;12.73;;;4.30;99.90;;;;;;4149491;28;20212;-94
2023/02/06 06:35:09;;;;;;;69.97;12.93;;;4.30;99.90;;;;;;4149576;28;20164;-94
2023/02/06 06:37:09;;;;;;;107.40;22.47;;;4.00;99.90;;;;;;4149557;28;20670;-93
2023/02/06 06:39:19;;;;;;;110.80;27.50;;;4.10;99.90;;;;;;4149500;28;20189;-93
2023/02/06 06:41:20;;;;;;;110.33;21.13;;;4.20;99.90;;;;;;4149068;28;20180;-95
2023/02/06 06:43:21;;;;;;;68.00;14.03;;;4.40;99.90;;;;;;4148919;28;20729;-93
2023/02/06 06:45:24;;;;;;;83.13;13.30;;;4.40;99.90;;;;;;4149427;28;20765;-95
2023/02/06 06:47:28;;;;;;;64.10;11.97;;;4.30;99.90;;;;;;4149694;28;20177;-95
2023/02/06 06:49:32;;;;;;;77.03;13.13;;;4.30;99.90;;;;;;4165476;28;20671;-95
2023/02/06 06:51:33;;;;;;;80.50;12.20;;;4.40;99.90;;;;;;4149004;28;20173;-93
2023/02/06 06:53:38;;;;;;;71.73;11.40;;;4.40;99.90;;;;;;4149385;28;20208;-94
2023/02/06 06:55:41;;;;;;;91.37;12.87;;;4.40;99.90;;;;;;4149183;28;20172;-93
2023/02/06 06:57:42;;;;;;;91.70;14.40;;;4.30;99.90;;;;;;4149274;28;20172;-94
2023/02/06 06:59:44;;;;;;;91.40;14.07;;;4.40;99.90;;;;;;4149347;28;20708;-93
2023/02/06 07:01:47;;;;;;;82.13;12.70;;;4.40;99.90;;;;;;4149411;28;20169;-94
2023/02/06 07:03:50;;;;;;;82.27;13.17;;;4.30;99.90;;;;;;4149322;28;20314;-94
2023/02/06 07:05:52;;;;;;;87.87;13.50;;;4.30;99.90;;;;;;4149247;28;20567;-94
2023/02/06 07:07:53;;;;;;;84.13;14.67;;;4.40;99.90;;;;;;4165308;28;20228;-92
2023/02/06 07:09:56;;;;;;;78.43;13.53;;;4.40;99.90;;;;;;4149525;28;20623;-93
2023/02/06 07:12:01;;;;;;;83.70;13.60;;;4.40;99.90;;;;;;4149242;28;20312;-94
2023/02/06 07:14:02;;;;;;;89.50;13.30;;;4.30;99.90;;;;;;4148840;28;20189;-93
2023/02/06 07:16:04;;;;;;;76.40;13.07;;;4.40;99.90;;;;;;4148970;28;20215;-95
2023/02/06 07:18:10;;;;;;;102.77;13.17;;;4.40;99.90;;;;;;4148782;28;20200;-95
2023/02/06 07:20:21;;;;;;;;;;;;;;;;;;;;;
2023/02/06 07:22:30;;;;;;;68.30;11.60;;;4.50;99.90;;;;;;4165350;28;20180;-94
2023/02/06 07:24:41;;;;;;;78.13;11.77;;;4.70;99.90;;;;;;4149419;28;20181;-94
2023/02/06 07:26:43;;;;;;;73.70;11.50;;;4.80;99.90;;;;;;4149090;28;20290;-93
2023/02/06 07:28:52;;;;;;;68.07;11.67;;;4.80;99.90;;;;;;4165091;28;20200;-94
2023/02/06 07:31:00;;;;;;;78.60;12.43;;;4.70;99.90;;;;;;4164979;28;20171;-95
2023/02/06 07:33:04;;;;;;;63.37;12.00;;;4.70;99.90;;;;;;4148923;28;20220;-93
2023/02/06 07:35:06;;;;;;;72.90;12.63;;;4.80;99.90;;;;;;4148857;28;20173;-94
2023/02/06 07:37:09;;;;;;;71.27;13.40;;;4.70;99.90;;;;;;4148825;28;20172;-92
2023/02/06 07:39:13;;;;;;;85.00;12.33;;;4.80;99.90;;;;;;4148641;28;20193;-94
2023/02/06 07:41:16;;;;;;;55.83;11.73;;;4.80;99.90;;;;;;4148859;28;20181;-94
2023/02/06 07:43:56;;;;;;;131.27;14.03;;;4.70;99.90;;;;;;4149345;28;20172;-94
2023/02/06 07:46:42;;;;;;;;;;;;;;;;;;;;;
2023/02/06 07:51:59;;;;;;;175.97;12.80;;;4.40;99.90;;;;;;4163030;28;20187;-95
2023/02/06 07:54:26;;;;;;;198.67;14.43;;;5.00;99.90;;;;;;4148813;28;20247;-93
2023/02/06 07:57:01;;;;;;;193.93;13.37;;;4.80;99.90;;;;;;4135604;28;20176;-94
2023/02/06 09:52:51;;;;;;;127.43;10.07;;;5.70;99.90;;;;;;4139791;28;20356;-93
2023/02/06 09:55:19;;;;;;;63.97;8.70;;;5.60;99.90;;;;;;4102216;28;20218;-95
2023/02/06 09:57:57;;;;;;;41.13;8.50;;;5.10;99.90;;;;;;4118640;28;20182;-96
2023/02/06 10:01:09;;;;;;;126.87;10.17;;;4.70;99.90;;;;;;4098273;28;20187;-95
2023/02/06 10:03:42;;;;;;;91.93;9.63;;;4.90;99.90;;;;;;4102794;28;20671;-95
2023/02/06 10:06:27;;;;;;;168.27;12.33;;;5.50;99.90;;;;;;4104631;28;20230;-95
2023/02/06 10:08:59;;;;;;;128.87;11.47;;;5.90;99.90;;;;;;4088148;28;20204;-95
2023/02/06 10:11:47;;;;;;;53.10;13.37;;;5.70;99.90;;;;;;4088030;29;20187;-94
2023/02/06 10:14:38;;;;;;;93.07;12.47;;;5.50;99.90;;;;;;4101296;29;20659;-95
2023/02/06 10:16:57;;;;;;;78.77;12.57;;;5.90;99.90;;;;;;4115088;28;20245;-93
2023/02/06 10:19:20;;;;;;;73.43;12.67;;;5.90;99.90;;;;;;4117511;28;20198;-95
2023/02/06 10:21:40;;;;;;;110.20;15.47;;;5.80;99.90;;;;;;4117647;28;20182;-93
2023/02/06 10:24:03;;;;;;;63.63;13.30;;;5.80;99.90;;;;;;4117833;28;20191;-94
2023/02/06 10:26:17;;;;;;;62.27;13.87;;;5.80;99.90;;;;;;4118403;28;20651;-95
2023/02/06 10:28:23;;;;;;;77.43;15.00;;;5.90;99.90;;;;;;4118079;28;20198;-95
2023/02/06 10:30:57;;;;;;;48.97;14.50;;;5.90;99.90;;;;;;4118048;28;20181;-94
2023/02/06 10:33:14;;;;;;;68.07;14.23;;;5.90;99.90;;;;;;4117409;28;20223;-95
2023/02/06 10:35:32;;;;;;;47.90;14.47;;;6.30;99.90;;;;;;4117547;28;20284;-94
2023/02/06 10:41:05;;;;;;;56.67;14.33;;;6.00;99.90;;;;;;4111843;28;20329;-95
2023/02/06 10:43:39;;;;;;;97.47;16.10;;;6.00;99.90;;;;;;4132225;28;20184;-95
2023/02/06 10:46:33;;;;;;;81.93;14.30;;;6.50;99.90;;;;;;4127901;28;20177;-95
2023/02/06 10:48:58;;;;;;;76.63;15.30;;;7.10;99.90;;;;;;4118437;28;20198;-94
2023/02/06 10:51:23;;;;;;;80.30;13.57;;;7.20;99.90;;;;;;4122280;28;20194;-95
2023/02/06 10:53:58;;;;;;;87.80;14.63;;;7.30;99.90;;;;;;4119319;28;20229;-95
2023/02/06 10:56:46;;;;;;;70.97;13.83;;;7.50;99.90;;;;;;4127112;28;20262;-95
2023/02/06 11:02:08;;;;;;;;;;;;;;;;;;;;;
2023/02/06 11:04:36;;;;;;;45.50;12.80;;;7.00;99.90;;;;;;4116916;28;20217;-95
2023/02/06 11:07:19;;;;;;;52.30;13.37;;;7.40;99.90;;;;;;4116732;28;20171;-96
2023/02/06 11:16:21;;;;;;;49.27;11.97;;;7.70;99.90;;;;;;4097177;29;20192;-96
2023/02/06 11:18:38;;;;;;;35.73;10.70;;;7.60;99.90;;;;;;4069564;29;20207;-95
2023/02/06 11:20:47;;;;;;;35.00;10.60;;;7.60;99.90;;;;;;4084559;29;20191;-96
2023/02/06 11:23:12;;;;;;;38.27;10.40;;;7.70;99.90;;;;;;4089169;28;20269;-96
2023/02/06 11:25:32;;;;;;;34.93;10.23;;;7.50;99.90;;;;;;4133888;28;20177;-95
2023/02/06 11:27:40;;;;;;;37.57;10.13;;;7.20;99.90;;;;;;4116360;28;20730;-95
2023/02/06 11:29:46;;;;;;;42.65;10.23;;;7.00;99.90;;;;;;4118134;28;20170;-96
2023/02/06 11:32:23;;;;;;;31.07;9.97;;;7.00;99.90;;;;;;4116785;28;20220;-95
2023/02/06 11:34:27;;;;;;;34.83;9.43;;;7.50;99.90;;;;;;4107688;28;20191;-95
2023/02/06 11:36:40;;;;;;;36.57;11.07;;;7.90;99.90;;;;;;4107434;29;20151;-95
2023/02/06 11:39:02;;;;;;;32.27;10.63;;;8.10;99.90;;;;;;4106431;28;20727;-95
2023/02/06 11:41:16;;;;;;;35.27;10.70;;;8.10;99.90;;;;;;4090581;29;20211;-96
2023/02/06 11:43:25;;;;;;;36.30;12.00;;;7.40;99.90;;;;;;4123579;28;20181;-95
2023/02/06 11:45:42;;;;;;;35.33;11.97;;;6.70;99.90;;;;;;4120484;28;20204;-95
2023/02/06 11:47:46;;;;;;;36.93;10.70;;;7.10;99.90;;;;;;4123761;28;20301;-95
2023/02/06 11:49:50;;;;;;;48.87;12.33;;;7.30;99.90;;;;;;4118397;28;20172;-94
2023/02/06 11:51:58;;;;;;;42.17;11.10;;;7.40;99.90;;;;;;4122063;28;20178;-95
2023/02/06 11:54:03;;;;;;;38.87;11.50;;;7.80;99.90;;;;;;4116733;28;20220;-95
2023/02/06 11:56:36;;;;;;;40.80;11.27;;;7.80;99.90;;;;;;4121831;28;20170;-96
2023/02/06 11:59:23;;;;;;;48.73;12.00;;;7.20;99.90;;;;;;4133713;28;20194;-95
2023/02/06 12:01:23;;;;;;;39.20;12.07;;;7.60;99.90;;;;;;4123669;28;20642;-95
2023/02/06 12:03:33;;;;;;;47.57;11.30;;;8.10;99.90;;;;;;4118880;28;20217;-94
2023/02/06 12:06:08;;;;;;;38.17;12.37;;;8.50;99.90;;;;;;4116856;28;20186;-95
2023/02/06 12:08:54;;;;;;;45.47;13.10;;;8.50;99.90;;;;;;4116296;28;20273;-95
2023/02/06 12:11:44;;;;;;;52.53;12.47;;;8.40;99.90;;;;;;4091040;28;20185;-95
2023/02/06 12:14:18;;;;;;;59.30;11.30;;;7.80;99.90;;;;;;4093849;28;20214;-96
2023/02/06 12:20:20;;;;;;;43.20;11.10;;;7.50;99.90;;;;;;4086443;29;20664;-94
2023/02/06 12:23:06;;;;;;;;;;;;;;;;;;;;;
2023/02/06 12:25:38;;;;;;;40.83;10.80;;;7.80;99.90;;;;;;4121852;28;20170;-96
2023/02/06 12:30:42;;;;;;;42.80;10.03;;;9.00;99.90;;;;;;4116959;28;20170;-95
2023/02/06 12:33:24;;;;;;;43.37;9.53;;;8.90;99.90;;;;;;4116374;28;20577;-96
2023/02/06 12:42:55;;;;;;;39.57;7.27;;;8.50;99.90;;;;;;4111946;28;20650;-95
2023/02/06 12:45:10;;;;;;;43.57;7.03;;;8.20;99.90;;;;;;4102903;28;20193;-94
2023/02/06 12:47:14;;;;;;;37.73;7.27;;;7.90;99.90;;;;;;4119156;28;20183;-95
2023/02/06 12:49:41;;;;;;;42.70;6.57;;;7.50;99.90;;;;;;4118730;28;20205;-94
2023/02/06 12:51:57;;;;;;;38.73;6.10;;;7.30;99.90;;;;;;4118539;28;20194;-94
2023/02/06 12:54:09;;;;;;;33.67;6.67;;;7.10;99.90;;;;;;4119663;28;20717;-95
2023/02/06 12:56:29;;;;;;;33.70;6.20;;;7.00;99.90;;;;;;4104122;28;20170;-96
2023/02/06 12:58:41;;;;;;;37.57;6.27;;;7.00;99.90;;;;;;4104739;28;20231;-96
2023/02/06 13:00:54;;;;;;;28.47;4.73;;;7.20;99.90;;;;;;4120662;28;20643;-94
2023/02/06 13:03:12;;;;;;;31.27;5.77;;;7.40;99.90;;;;;;4104359;28;20238;-94
2023/02/06 13:05:23;;;;;;;31.67;5.87;;;7.50;99.90;;;;;;4103504;28;20183;-93
2023/02/06 13:07:25;;;;;;;41.83;5.90;;;7.60;99.90;;;;;;4119364;28;20178;-93
2023/02/06 13:09:31;;;;;;;33.93;5.50;;;7.80;99.90;;;;;;4103607;28;20199;-94
2023/02/06 13:11:37;;;;;;;38.57;6.27;;;7.90;99.90;;;;;;4103134;29;20670;-95
2023/02/06 13:13:40;;;;;;;36.63;6.37;;;7.90;99.90;;;;;;4102915;28;20299;-96
2023/02/06 13:15:41;;;;;;;36.50;6.93;;;8.00;99.90;;;;;;4103976;29;20311;-95
2023/02/06 13:17:42;;;;;;;28.13;6.33;;;8.30;99.90;;;;;;4118871;28;20190;-94
2023/02/06 13:19:45;;;;;;;49.80;8.20;;;8.30;99.90;;;;;;4119209;28;20253;-95
2023/02/06 13:22:07;;;;;;;33.30;6.43;;;8.40;99.90;;;;;;4118840;28;20197;-94
2023/02/06 13:24:15;;;;;;;31.97;6.27;;;8.50;99.90;;;;;;4119112;28;20193;-94
2023/02/06 13:26:46;;;;;;;;;;;;;;;;;;;;;
2023/02/06 13:29:04;;;;;;;33.53;6.87;;;8.00;99.90;;;;;;4119266;28;20220;-94
2023/02/06 13:31:27;;;;;;;33.80;6.17;;;7.80;99.90;;;;;;4108921;28;20766;-96
2023/02/06 13:34:05;;;;;;;36.47;8.73;;;7.60;99.90;;;;;;4123281;28;20318;-96
2023/02/06 13:39:48;;;;;;;37.57;6.87;;;7.70;99.90;;;;;;4136995;28;20201;-95
2023/02/06 13:45:53;;;;;;;;;;;;;;;;;;;;;
2023/02/06 13:52:20;;;;;;;34.63;5.67;;;8.00;99.90;;;;;;4061921;29;20197;-94
2023/02/06 13:59:05;;;;;;;;;;;;;;;;;;;;;
2023/02/06 14:01:57;;;;;;;33.30;6.07;;;8.40;99.90;;;;;;4085559;29;20193;-95
2023/02/06 14:04:05;;;;;;;35.57;6.33;;;8.80;99.90;;;;;;4014507;29;20198;-92
2023/02/06 14:06:39;;;;;;;30.07;6.07;;;8.80;99.90;;;;;;4023366;29;20186;-94
2023/02/06 14:09:07;;;;;;;33.57;6.97;;;8.60;99.90;;;;;;4070904;29;20704;-93
2023/02/06 14:14:16;;;;;;;30.53;6.30;;;8.50;99.90;;;;;;4054300;29;20681;-93
2023/02/06 14:16:41;;;;;;;21.33;5.33;;;8.40;99.90;;;;;;4108709;28;20232;-93
2023/02/06 14:19:01;;;;;;;29.50;6.03;;;8.60;99.90;;;;;;4117583;28;20256;-93
2023/02/06 14:21:10;;;;;;;28.60;5.30;;;8.40;99.90;;;;;;4117541;28;20232;-93
2023/02/06 14:23:19;;;;;;;21.03;5.60;;;8.30;99.90;;;;;;4117722;28;20670;-93
2023/02/06 14:25:54;;;;;;;27.07;6.27;;;8.30;99.90;;;;;;4133540;28;20172;-93
2023/02/06 14:28:17;;;;;;;36.17;7.57;;;8.10;99.90;;;;;;4117584;28;20178;-94
2023/02/06 14:30:35;;;;;;;28.03;6.57;;;8.50;99.90;;;;;;4117626;28;20182;-94
2023/02/06 14:32:43;;;;;;;32.30;6.60;;;8.40;99.90;;;;;;4117487;28;20241;-94
2023/02/06 14:35:34;;;;;;;25.10;6.23;;;7.90;99.90;;;;;;4133547;28;20181;-95
2023/02/06 14:37:47;;;;;;;32.67;6.60;;;7.50;99.90;;;;;;4116946;28;20178;-93
2023/02/06 14:39:53;;;;;;;37.50;7.50;;;7.90;99.90;;;;;;4117096;28;20196;-94
2023/02/06 14:41:57;;;;;;;39.17;6.47;;;8.50;99.90;;;;;;4117122;28;20185;-95
2023/02/06 14:43:59;;;;;;;33.27;5.90;;;8.80;99.90;;;;;;4117153;28;20185;-93
2023/02/06 14:46:06;;;;;;;32.35;5.97;;;8.60;99.90;;;;;;4117632;28;20177;-94
2023/02/06 14:48:26;;;;;;;28.13;6.47;;;8.70;99.90;;;;;;4117277;28;20354;-94
2023/02/06 14:50:29;;;;;;;28.93;6.43;;;8.80;99.90;;;;;;4133274;28;20196;-94
2023/02/06 14:52:32;;;;;;;29.80;8.07;;;8.80;99.90;;;;;;4117614;28;20173;-93
2023/02/06 14:54:35;;;;;;;29.53;6.90;;;8.20;99.90;;;;;;4117305;28;20193;-94
2023/02/06 14:56:37;;;;;;;31.50;7.00;;;7.80;99.90;;;;;;4117217;28;20254;-92
2023/02/06 14:58:45;;;;;;;23.33;5.47;;;7.70;99.90;;;;;;4116899;28;20202;-95
2023/02/06 15:00:45;;;;;;;29.48;5.90;;;8.10;99.90;;;;;;4117319;28;20209;-93
2023/02/06 15:03:00;;;;;;;27.43;6.57;;;8.00;99.90;;;;;;4116318;28;20174;-93
2023/02/06 15:05:03;;;;;;;39.27;6.30;;;8.30;99.90;;;;;;4101013;28;20206;-93
2023/02/06 15:07:04;;;;;;;29.00;5.93;;;8.30;99.90;;;;;;4117396;28;20189;-94
2023/02/06 15:09:06;;;;;;;33.37;6.27;;;8.40;99.90;;;;;;4116562;28;20202;-93
2023/02/06 15:11:20;;;;;;;26.03;6.40;;;8.40;99.90;;;;;;4116886;28;20175;-94
2023/02/06 15:13:33;;;;;;;27.60;6.70;;;8.10;99.90;;;;;;4116768;28;20224;-94
2023/02/06 15:15:34;;;;;;;37.03;6.90;;;8.30;99.90;;;;;;4116912;28;20631;-95
2023/02/06 15:17:35;;;;;;;35.73;7.80;;;8.40;99.90;;;;;;4100865;28;20170;-94
2023/02/06 15:19:36;;;;;;;29.33;6.97;;;8.70;99.90;;;;;;4116466;28;20201;-93
2023/02/06 15:21:38;;;;;;;30.90;6.37;;;8.70;99.90;;;;;;4116740;28;20166;-94
2023/02/06 15:24:06;;;;;;;23.30;6.10;;;8.10;99.90;;;;;;4116527;28;20178;-93
2023/02/06 15:26:40;;;;;;;;;;;;;;;;;;;;;
2023/02/06 15:29:03;;;;;;;28.33;6.27;;;7.60;99.90;;;;;;4180972;23;20593;-90
2023/02/06 15:31:16;;;;;;;26.17;5.03;;;7.50;99.90;;;;;;4147705;28;20180;-89
2023/02/06 15:33:22;;;;;;;24.70;6.40;;;7.80;99.90;;;;;;4148945;28;20308;-91
2023/02/06 15:35:40;;;;;;;26.30;6.27;;;7.80;99.90;;;;;;4148569;28;20212;-90
2023/02/06 15:37:40;;;;;;;24.53;6.10;;;7.90;99.90;;;;;;4148733;28;20169;-90
2023/02/06 15:39:42;;;;;;;28.00;5.83;;;7.90;99.90;;;;;;4148721;28;20201;-91
2023/02/06 15:41:46;;;;;;;28.87;6.70;;;7.90;99.90;;;;;;4131662;28;20178;-90
2023/02/06 15:43:55;;;;;;;31.80;6.17;;;7.90;99.90;;;;;;4148632;28;20188;-89
2023/02/06 15:45:59;;;;;;;23.85;6.60;;;7.90;99.90;;;;;;4148767;28;20176;-90
2023/02/06 15:48:16;;;;;;;32.57;6.30;;;7.70;99.90;;;;;;4148363;28;20216;-90
2023/02/06 15:50:19;;;;;;;27.70;7.27;;;7.50;99.90;;;;;;4132502;28;20173;-90
2023/02/06 15:52:46;;;;;;;27.97;6.90;;;7.50;99.90;;;;;;4148566;28;20267;-90
2023/02/06 15:54:56;;;;;;;32.17;6.93;;;7.80;99.90;;;;;;4148780;28;20185;-90
2023/02/06 15:57:20;;;;;;;31.10;6.40;;;8.00;99.90;;;;;;4148665;28;20204;-90
2023/02/06 15:59:24;;;;;;;29.37;6.83;;;8.10;99.90;;;;;;4132148;28;20243;-90
2023/02/06 16:01:29;;;;;;;32.17;6.97;;;8.20;99.90;;;;;;4148468;28;20192;-91
2023/02/06 16:03:30;;;;;;;33.83;7.70;;;8.00;99.90;;;;;;4148358;28;20181;-90
2023/02/06 16:05:34;;;;;;;34.07;7.20;;;7.70;99.90;;;;;;4148514;28;20248;-90
2023/02/06 16:07:35;;;;;;;26.63;7.10;;;7.90;99.90;;;;;;4132217;28;20177;-89
2023/02/06 16:09:51;;;;;;;33.67;7.50;;;8.30;99.90;;;;;;4148350;28;20735;-90
2023/02/06 16:11:55;;;;;;;27.37;7.37;;;8.50;99.90;;;;;;4132076;28;20243;-90
2023/02/06 16:13:57;;;;;;;37.37;6.17;;;8.30;99.90;;;;;;4148060;28;20221;-91
2023/02/06 16:16:19;;;;;;;25.90;6.23;;;8.30;99.90;;;;;;4148498;28;20271;-94
2023/02/06 16:18:23;;;;;;;27.83;6.30;;;8.20;99.90;;;;;;4148203;28;20618;-90
2023/02/06 16:20:31;;;;;;;24.63;5.27;;;7.70;99.90;;;;;;4132110;28;20223;-90
2023/02/06 16:22:38;;;;;;;28.03;5.57;;;7.60;99.90;;;;;;4148320;28;20207;-89
2023/02/06 16:24:39;;;;;;;27.97;5.60;;;7.50;99.90;;;;;;4148055;28;20179;-90
2023/02/06 16:26:54;;;;;;;23.73;5.43;;;7.80;99.90;;;;;;4148509;28;20169;-89
2023/02/06 16:29:37;;;;;;;33.30;6.60;;;8.10;99.90;;;;;;4148172;28;20688;-96
2023/02/06 16:32:02;;;;;;;30.27;5.87;;;8.20;99.90;;;;;;4149939;28;20638;-94
2023/02/06 16:35:02;;;;;;;;;;;;;;;;;;;;;
2023/02/06 16:37:56;;;;;;;34.80;6.93;;;8.10;99.90;;;;;;4143942;28;20263;-96
2023/02/06 16:40:49;;;;;;;30.40;6.07;;;8.20;99.90;;;;;;4139682;28;20184;-94
2023/02/06 16:43:42;;;;;;;33.47;6.47;;;8.30;99.90;;;;;;4146955;28;20181;-94
2023/02/06 16:46:32;;;;;;;;;;;;;;;;;;;;;
2023/02/06 16:49:16;;;;;;;;;;;;;;;;;;;;;
2023/02/06 16:55:01;;;;;;;32.53;6.17;;;8.30;99.90;;;;;;4140636;28;20676;-94
2023/02/06 17:00:39;;;;;;;33.70;5.97;;;8.20;99.90;;;;;;4148540;28;20176;-94
2023/02/06 17:06:06;;;;;;;;;;;;;;;;;;;;;
2023/02/06 17:09:15;;;;;;;;;;;;;;;;;;;;;